Time;durP1;ratioP1;P1;durP2;ratioP2;P2;SDS_P1;SDS_P2;PMS_P1;PMS_P2;Temp;Humidity;BMP_temperature;BMP_pressure;BME280_temperature;BME280_humidity;BME280_pressure;Samples;Min_cycle;Max_cycle;Signal;HPM_P1;HPM_P2
2021/11/06 00:01:44;;;;;;;49.63;12.95;;;6.50;95.70;;;;;;5052591;28;20025;-74
2021/11/06 00:04:10;;;;;;;42.17;13.65;;;6.50;95.80;;;;;;5027007;28;20366;-75
2021/11/06 00:06:36;;;;;;;39.92;12.98;;;6.40;95.70;;;;;;5051298;28;20048;-74
2021/11/06 00:09:02;;;;;;;47.33;14.18;;;6.40;95.80;;;;;;5046081;28;20091;-75
2021/11/06 00:11:28;;;;;;;44.75;14.05;;;6.40;95.80;;;;;;5050566;28;20025;-74
2021/11/06 00:13:54;;;;;;;42.33;14.48;;;6.40;95.80;;;;;;5052230;28;20035;-74
2021/11/06 00:16:20;;;;;;;32.60;11.73;;;6.40;96.10;;;;;;5050889;28;20028;-75
2021/11/06 00:18:45;;;;;;;41.47;12.00;;;6.40;95.80;;;;;;5027247;28;20120;-74
2021/11/06 00:21:11;;;;;;;45.72;13.63;;;6.40;95.80;;;;;;5051493;28;20032;-75
2021/11/06 00:23:36;;;;;;;35.33;12.52;;;6.40;95.80;;;;;;5052304;28;20233;-75
2021/11/06 00:26:02;;;;;;;36.83;12.13;;;6.40;95.80;;;;;;5052540;28;20025;-75
2021/11/06 00:28:28;;;;;;;34.97;11.82;;;6.40;95.80;;;;;;5052294;28;20045;-75
2021/11/06 00:30:54;;;;;;;29.85;10.95;;;6.40;95.80;;;;;;5052374;28;20039;-75
2021/11/06 00:33:19;;;;;;;39.08;12.85;;;6.40;95.80;;;;;;5050974;28;20021;-75
2021/11/06 00:35:45;;;;;;;36.63;13.80;;;6.30;95.80;;;;;;5034364;28;20195;-74
2021/11/06 00:38:11;;;;;;;30.92;11.68;;;6.30;95.90;;;;;;5048963;28;20495;-75
2021/11/06 00:40:37;;;;;;;38.53;12.10;;;6.30;95.90;;;;;;5038034;28;20033;-75
2021/11/06 00:43:02;;;;;;;26.20;10.57;;;6.30;95.90;;;;;;5051607;28;20501;-75
2021/11/06 00:45:28;;;;;;;34.50;12.55;;;6.30;95.90;;;;;;5050537;28;20382;-74
2021/11/06 00:47:54;;;;;;;27.15;10.88;;;6.30;95.90;;;;;;5051260;28;20037;-75
2021/11/06 00:50:19;;;;;;;33.22;12.65;;;6.30;95.90;;;;;;5051426;28;20044;-75
2021/11/06 00:52:46;;;;;;;35.75;13.88;;;6.30;95.90;;;;;;5050325;28;20036;-74
2021/11/06 00:55:13;;;;;;;26.75;12.73;;;6.30;95.90;;;;;;5047944;28;20029;-75
2021/11/06 00:57:39;;;;;;;26.08;11.35;;;6.30;95.90;;;;;;5052186;28;20547;-75
2021/11/06 01:00:09;;;;;;;28.73;12.50;;;6.30;95.90;;;;;;5050381;28;20044;-75
2021/11/06 01:02:35;;;;;;;28.60;12.05;;;6.20;95.90;;;;;;5051524;28;20041;-74
2021/11/06 01:05:00;;;;;;;21.50;10.50;;;6.20;95.80;;;;;;5051640;28;20047;-75
2021/11/06 01:07:26;;;;;;;26.75;11.95;;;6.20;95.90;;;;;;5048362;28;20124;-75
2021/11/06 01:09:52;;;;;;;27.33;11.50;;;6.20;95.90;;;;;;5049860;28;20116;-74
2021/11/06 01:12:17;;;;;;;23.75;10.80;;;6.20;95.90;;;;;;5048295;28;20088;-75
2021/11/06 01:14:43;;;;;;;24.60;11.57;;;6.10;95.80;;;;;;5048918;28;20021;-75
2021/11/06 01:17:09;;;;;;;20.33;10.40;;;6.10;95.80;;;;;;5050573;28;20040;-75
2021/11/06 01:19:35;;;;;;;21.02;10.65;;;6.10;95.80;;;;;;5031359;28;20033;-75
2021/11/06 01:22:00;;;;;;;25.48;11.32;;;6.10;95.80;;;;;;5049206;28;20032;-75
2021/11/06 01:24:26;;;;;;;20.52;10.73;;;6.10;95.80;;;;;;5050868;28;20063;-74
2021/11/06 01:26:53;;;;;;;21.38;10.02;;;6.10;95.80;;;;;;5049303;28;20080;-75
2021/11/06 01:29:19;;;;;;;22.75;12.10;;;6.10;95.80;;;;;;5049726;28;20040;-75
2021/11/06 01:31:44;;;;;;;22.35;11.00;;;6.00;96.00;;;;;;5047272;28;20772;-75
2021/11/06 01:34:10;;;;;;;24.60;10.88;;;6.10;95.80;;;;;;5046724;28;20437;-75
2021/11/06 01:36:35;;;;;;;24.45;11.73;;;6.00;95.80;;;;;;5047314;28;20067;-74
2021/11/06 01:39:01;;;;;;;18.48;10.70;;;6.00;95.70;;;;;;5045605;28;20075;-74
2021/11/06 01:41:27;;;;;;;21.92;11.32;;;6.00;95.70;;;;;;5050066;28;20033;-74
2021/11/06 01:43:52;;;;;;;24.13;12.00;;;6.00;95.70;;;;;;5047803;28;20494;-74
2021/11/06 01:46:18;;;;;;;24.35;11.63;;;5.90;95.70;;;;;;5016321;28;20726;-75
2021/11/06 01:48:44;;;;;;;19.52;11.55;;;5.90;95.70;;;;;;5049564;28;20037;-74
2021/11/06 01:51:09;;;;;;;33.53;12.93;;;5.90;95.70;;;;;;5049369;28;20036;-74
2021/11/06 01:53:35;;;;;;;22.23;11.80;;;5.90;95.80;;;;;;5050928;28;20447;-75
2021/11/06 01:56:02;;;;;;;22.77;11.73;;;5.90;95.70;;;;;;5050641;28;20074;-75
2021/11/06 01:58:29;;;;;;;23.25;11.63;;;5.90;95.80;;;;;;5049493;28;20033;-74
2021/11/06 02:00:55;;;;;;;24.88;12.80;;;5.90;95.70;;;;;;5049835;28;20537;-74
2021/11/06 02:03:21;;;;;;;29.15;13.02;;;5.80;95.70;;;;;;5050728;28;20063;-74
2021/11/06 02:05:47;;;;;;;24.60;13.00;;;5.80;95.70;;;;;;5032599;28;20111;-74
2021/11/06 02:08:14;;;;;;;23.05;12.63;;;5.80;95.70;;;;;;5041110;28;20053;-75
2021/11/06 02:10:41;;;;;;;25.30;12.75;;;5.80;95.70;;;;;;5049126;28;20486;-74
2021/11/06 02:13:07;;;;;;;22.65;13.65;;;5.80;95.70;;;;;;5050576;28;20056;-75
2021/11/06 02:15:32;;;;;;;20.90;11.57;;;5.80;95.70;;;;;;5048643;28;20666;-74
2021/11/06 02:17:58;;;;;;;29.48;11.68;;;5.80;95.70;;;;;;5049125;28;20035;-75
2021/11/06 02:20:24;;;;;;;28.05;12.73;;;5.70;95.60;;;;;;5048056;28;20029;-74
2021/11/06 02:22:50;;;;;;;21.23;11.40;;;5.70;95.60;;;;;;5048983;28;20044;-75
2021/11/06 02:25:17;;;;;;;26.52;12.85;;;5.70;95.60;;;;;;5049473;28;20054;-75
2021/11/06 02:27:46;;;;;;;23.63;12.43;;;5.70;95.60;;;;;;5049208;28;20120;-74
2021/11/06 02:30:13;;;;;;;;;;;5.70;95.60;;;;;;5049010;28;20056;-75
2021/11/06 02:32:40;;;;;;;21.83;11.77;;;5.70;95.60;;;;;;5050613;28;19923;-75
2021/11/06 02:35:07;;;;;;;34.35;16.10;;;5.60;95.60;;;;;;5048032;28;20075;-75
2021/11/06 02:37:33;;;;;;;22.52;12.18;;;5.60;95.60;;;;;;5049761;28;20037;-74
2021/11/06 02:39:59;;;;;;;27.05;13.27;;;5.60;95.60;;;;;;5047088;28;20059;-75
2021/11/06 02:42:24;;;;;;;25.17;13.10;;;5.60;95.60;;;;;;5048520;28;20036;-74
2021/11/06 02:44:50;;;;;;;22.60;11.90;;;5.60;95.60;;;;;;5049150;28;20124;-74
2021/11/06 02:47:16;;;;;;;22.88;13.02;;;5.60;95.60;;;;;;5050331;28;20561;-74
2021/11/06 02:49:42;;;;;;;25.27;12.80;;;5.60;95.90;;;;;;5050478;28;20037;-74
2021/11/06 02:52:07;;;;;;;19.15;11.65;;;5.60;95.60;;;;;;5048630;28;20033;-75
2021/11/06 02:54:33;;;;;;;26.42;12.90;;;5.50;95.50;;;;;;5050401;28;20442;-74
2021/11/06 02:57:00;;;;;;;28.85;13.98;;;5.50;95.60;;;;;;5049004;28;20442;-74
2021/11/06 02:59:25;;;;;;;24.05;13.18;;;5.50;95.60;;;;;;5030056;28;20026;-75
2021/11/06 03:01:51;;;;;;;30.17;13.50;;;5.50;95.60;;;;;;5048878;28;20041;-74
2021/11/06 03:04:17;;;;;;;20.52;11.95;;;5.50;95.60;;;;;;5049037;28;20417;-74
2021/11/06 03:06:43;;;;;;;23.10;11.35;;;5.50;95.60;;;;;;5028993;28;20029;-75
2021/11/06 03:09:10;;;;;;;23.75;12.88;;;5.50;95.60;;;;;;5049905;28;20040;-74
2021/11/06 03:11:38;;;;;;;23.13;12.07;;;5.50;95.60;;;;;;5048485;28;20490;-74
2021/11/06 03:14:07;;;;;;;22.83;12.83;;;5.50;95.60;;;;;;5053464;28;20033;-75
2021/11/06 03:16:36;;;;;;;24.48;12.98;;;5.40;95.50;;;;;;5051254;28;20040;-74
2021/11/06 03:19:01;;;;;;;26.27;13.32;;;5.40;95.60;;;;;;5053183;28;20482;-75
2021/11/06 03:21:28;;;;;;;23.27;12.10;;;5.40;95.50;;;;;;5031039;28;20045;-75
2021/11/06 03:23:54;;;;;;;24.10;12.65;;;5.40;95.50;;;;;;5029398;28;20063;-75
2021/11/06 03:26:20;;;;;;;24.63;13.02;;;5.40;95.50;;;;;;5052378;28;20108;-75
2021/11/06 03:28:45;;;;;;;27.58;12.25;;;5.40;95.50;;;;;;5052575;28;20111;-75
2021/11/06 03:31:11;;;;;;;22.38;11.05;;;5.40;95.50;;;;;;5052209;28;20029;-75
2021/11/06 03:33:37;;;;;;;23.15;12.02;;;5.30;95.60;;;;;;5051712;28;20040;-74
2021/11/06 03:36:03;;;;;;;22.38;12.18;;;5.30;95.60;;;;;;5051781;28;20033;-75
2021/11/06 03:38:29;;;;;;;24.98;11.18;;;5.30;95.60;;;;;;5051678;28;20569;-75
2021/11/06 03:40:55;;;;;;;27.52;12.50;;;5.30;95.60;;;;;;5052890;28;20037;-75
2021/11/06 03:43:20;;;;;;;23.40;11.88;;;5.30;95.60;;;;;;5027097;28;20037;-75
2021/11/06 03:45:46;;;;;;;25.25;12.05;;;5.30;95.60;;;;;;5053421;28;20033;-75
2021/11/06 03:48:15;;;;;;;31.13;13.73;;;5.20;95.60;;;;;;5051777;28;20082;-75
2021/11/06 03:50:40;;;;;;;24.30;11.93;;;5.30;95.60;;;;;;5052964;28;20040;-75
2021/11/06 03:53:06;;;;;;;18.88;11.20;;;5.30;95.60;;;;;;5053387;28;20390;-75
2021/11/06 03:55:33;;;;;;;23.58;12.65;;;5.20;95.60;;;;;;5051151;28;20083;-74
2021/11/06 03:57:59;;;;;;;23.45;11.52;;;5.20;95.80;;;;;;5048320;28;20037;-74
2021/11/06 04:00:25;;;;;;;23.92;12.55;;;5.20;95.60;;;;;;5050127;28;20032;-75
2021/11/06 04:02:50;;;;;;;24.67;11.32;;;5.20;95.60;;;;;;5033940;28;20033;-74
2021/11/06 04:05:16;;;;;;;24.80;11.50;;;5.20;95.70;;;;;;5052358;28;20033;-75
2021/11/06 04:07:43;;;;;;;20.67;10.80;;;5.20;95.70;;;;;;5052642;28;20123;-74
2021/11/06 04:10:10;;;;;;;22.40;11.70;;;5.20;95.70;;;;;;5051442;28;20075;-75
2021/11/06 04:12:36;;;;;;;17.77;10.20;;;5.20;95.70;;;;;;5031979;28;20789;-74
2021/11/06 04:15:03;;;;;;;24.02;11.45;;;5.20;95.60;;;;;;5052473;28;20036;-74
2021/11/06 04:17:29;;;;;;;18.40;10.90;;;5.20;95.70;;;;;;5053180;28;20025;-74
2021/11/06 04:19:54;;;;;;;21.25;11.68;;;5.20;95.70;;;;;;5034761;28;20106;-74
2021/11/06 04:22:20;;;;;;;26.05;11.15;;;5.20;95.70;;;;;;5034638;28;20040;-74
2021/11/06 04:24:46;;;;;;;20.13;11.82;;;5.20;95.70;;;;;;5050398;28;20574;-75
2021/11/06 04:27:11;;;;;;;26.52;11.35;;;5.20;95.70;;;;;;5051976;28;20037;-75
2021/11/06 04:29:37;;;;;;;24.90;12.82;;;5.20;95.80;;;;;;5052184;28;20540;-75
2021/11/06 04:32:04;;;;;;;23.13;11.07;;;5.10;95.80;;;;;;5057197;28;20113;-75
2021/11/06 04:34:30;;;;;;;21.33;12.27;;;5.20;95.90;;;;;;5050729;28;20658;-74
2021/11/06 04:36:56;;;;;;;27.25;12.52;;;5.20;95.90;;;;;;5051340;28;20047;-75
2021/11/06 04:39:22;;;;;;;28.80;13.48;;;5.20;95.90;;;;;;5049499;28;20111;-75
2021/11/06 04:41:48;;;;;;;23.63;11.43;;;5.20;95.90;;;;;;5049930;28;20039;-74
2021/11/06 04:44:13;;;;;;;24.60;11.77;;;5.20;95.90;;;;;;5050045;28;20093;-75
2021/11/06 04:46:39;;;;;;;23.58;12.18;;;5.20;95.90;;;;;;5050531;28;20040;-74
2021/11/06 04:49:05;;;;;;;19.75;12.15;;;5.20;96.20;;;;;;5049924;28;20029;-74
2021/11/06 04:51:31;;;;;;;23.17;11.45;;;5.20;95.90;;;;;;5050217;28;20131;-74
2021/11/06 04:53:56;;;;;;;25.23;12.45;;;5.20;95.90;;;;;;5050672;28;20123;-74
2021/11/06 04:56:22;;;;;;;23.48;11.40;;;5.20;95.90;;;;;;5051923;28;20120;-74
2021/11/06 04:58:48;;;;;;;19.80;10.75;;;5.20;95.90;;;;;;5034124;28;20037;-74
2021/11/06 05:01:13;;;;;;;19.00;11.20;;;5.20;95.90;;;;;;5050237;28;20047;-74
2021/11/06 05:03:39;;;;;;;21.25;10.45;;;5.10;95.90;;;;;;5051542;28;20068;-74
2021/11/06 05:06:05;;;;;;;22.65;11.43;;;5.20;95.90;;;;;;5025862;28;20025;-74
2021/11/06 05:08:31;;;;;;;23.42;11.88;;;5.10;95.90;;;;;;5051479;28;20055;-74
2021/11/06 05:10:57;;;;;;;22.90;12.10;;;5.10;95.90;;;;;;5050904;28;20788;-74
2021/11/06 05:13:22;;;;;;;25.27;13.13;;;5.10;95.90;;;;;;5049473;28;20033;-74
2021/11/06 05:15:48;;;;;;;24.33;12.10;;;5.10;95.90;;;;;;5051541;28;20033;-74
2021/11/06 05:18:17;;;;;;;25.83;11.85;;;5.10;95.90;;;;;;5050182;28;20107;-74
2021/11/06 05:20:43;;;;;;;26.15;13.05;;;5.10;95.90;;;;;;5050006;28;20090;-75
2021/11/06 05:23:09;;;;;;;23.58;11.52;;;5.10;95.90;;;;;;5050080;28;20029;-74
2021/11/06 05:25:36;;;;;;;23.10;12.93;;;5.10;96.20;;;;;;5050966;28;20069;-74
2021/11/06 05:28:02;;;;;;;27.40;12.38;;;5.10;96.00;;;;;;5049652;28;21644;-74
2021/11/06 05:30:27;;;;;;;22.58;11.77;;;5.10;95.90;;;;;;5037821;28;20064;-74
2021/11/06 05:32:53;;;;;;;22.25;10.98;;;5.10;95.90;;;;;;5051187;28;20029;-74
2021/11/06 05:35:19;;;;;;;25.10;10.48;;;5.10;95.90;;;;;;5050826;28;20025;-74
2021/11/06 05:37:45;;;;;;;24.25;12.75;;;5.10;95.90;;;;;;5049286;28;20032;-74
2021/11/06 05:40:11;;;;;;;29.80;12.65;;;5.10;95.90;;;;;;5050724;28;20478;-74
2021/11/06 05:42:37;;;;;;;27.02;13.13;;;5.10;95.90;;;;;;5051173;28;20044;-74
2021/11/06 05:45:05;;;;;;;26.45;13.20;;;5.10;95.90;;;;;;5049557;28;20389;-75
2021/11/06 05:47:31;;;;;;;30.10;11.50;;;5.10;95.90;;;;;;5033317;28;20033;-74
2021/11/06 05:49:56;;;;;;;26.95;11.77;;;5.10;95.90;;;;;;5050989;28;20040;-74
2021/11/06 05:52:22;;;;;;;27.10;11.98;;;5.10;95.90;;;;;;5050830;28;20501;-74
2021/11/06 05:54:48;;;;;;;25.42;11.70;;;5.00;95.80;;;;;;5050696;28;20489;-75
2021/11/06 05:57:13;;;;;;;28.85;12.55;;;5.10;95.90;;;;;;5042009;28;20432;-75
2021/11/06 05:59:39;;;;;;;26.35;11.25;;;5.00;95.80;;;;;;5049791;28;20363;-74
2021/11/06 06:02:05;;;;;;;23.77;12.38;;;5.00;95.80;;;;;;5050826;28;20470;-75
2021/11/06 06:04:31;;;;;;;27.33;13.00;;;5.00;95.80;;;;;;5049895;28;20021;-75
2021/11/06 06:06:57;;;;;;;27.73;11.75;;;5.00;95.80;;;;;;5047933;28;20111;-74
2021/11/06 06:09:22;;;;;;;26.88;11.75;;;5.00;95.80;;;;;;5047664;28;20083;-74
2021/11/06 06:11:48;;;;;;;21.65;13.00;;;5.00;95.80;;;;;;5034392;28;20044;-74
2021/11/06 06:14:14;;;;;;;21.20;11.15;;;5.00;95.80;;;;;;5048651;28;20024;-74
2021/11/06 06:16:42;;;;;;;24.48;11.23;;;5.00;95.80;;;;;;5048594;28;20850;-74
2021/11/06 06:19:08;;;;;;;25.20;11.70;;;5.00;95.80;;;;;;5048959;28;20025;-74
2021/11/06 06:21:33;;;;;;;31.05;12.77;;;5.00;95.90;;;;;;5030999;28;20043;-74
2021/11/06 06:23:59;;;;;;;28.85;11.93;;;5.00;95.80;;;;;;5021047;28;20033;-74
2021/11/06 06:26:24;;;;;;;28.58;12.82;;;5.10;95.90;;;;;;5048576;28;20064;-74
2021/11/06 06:28:50;;;;;;;30.05;11.50;;;5.10;95.90;;;;;;5047114;28;20068;-74
2021/11/06 06:31:16;;;;;;;30.15;11.60;;;5.00;95.80;;;;;;5046531;28;20065;-74
2021/11/06 06:33:42;;;;;;;23.92;11.45;;;5.00;95.80;;;;;;5047828;28;20028;-75
2021/11/06 06:36:08;;;;;;;25.50;10.48;;;5.00;95.80;;;;;;5049646;28;20021;-74
2021/11/06 06:38:34;;;;;;;29.17;12.07;;;5.00;95.80;;;;;;5032593;28;20462;-75
2021/11/06 06:41:00;;;;;;;23.77;12.57;;;5.00;95.90;;;;;;5050634;28;20029;-74
2021/11/06 06:43:26;;;;;;;24.90;11.85;;;5.00;95.90;;;;;;5049847;28;20021;-74
2021/11/06 06:45:52;;;;;;;26.70;12.30;;;5.00;96.10;;;;;;5038974;28;20034;-74
2021/11/06 06:48:18;;;;;;;26.35;12.23;;;5.00;95.90;;;;;;5051877;28;20037;-74
2021/11/06 06:50:46;;;;;;;28.77;12.77;;;4.90;95.80;;;;;;5052697;28;20029;-75
2021/11/06 06:53:13;;;;;;;31.58;12.80;;;5.00;95.90;;;;;;5053737;28;20021;-75
2021/11/06 06:55:40;;;;;;;29.73;12.25;;;5.00;95.90;;;;;;5055308;28;20413;-75
2021/11/06 06:58:06;;;;;;;22.58;11.73;;;5.00;95.90;;;;;;5037794;28;20029;-75
2021/11/06 07:00:31;;;;;;;23.45;12.63;;;5.00;95.90;;;;;;5054478;28;20079;-75
2021/11/06 07:02:57;;;;;;;26.67;12.68;;;5.10;96.00;;;;;;5054140;28;20394;-75
2021/11/06 07:05:22;;;;;;;25.25;12.10;;;5.10;95.90;;;;;;5053778;28;20044;-75
2021/11/06 07:07:48;;;;;;;27.83;12.35;;;5.10;95.90;;;;;;5055470;28;20029;-75
2021/11/06 07:10:14;;;;;;;24.35;11.02;;;5.20;95.90;;;;;;5054276;28;20143;-75
2021/11/06 07:12:41;;;;;;;25.98;12.15;;;5.20;95.90;;;;;;5037661;28;20693;-75
2021/11/06 07:15:07;;;;;;;26.83;13.45;;;5.30;95.90;;;;;;5054236;28;20028;-75
2021/11/06 07:17:33;;;;;;;24.20;12.88;;;5.30;95.90;;;;;;5054770;28;20025;-75
2021/11/06 07:19:58;;;;;;;25.55;12.52;;;5.40;95.90;;;;;;5055768;28;20381;-75
2021/11/06 07:22:24;;;;;;;29.60;12.50;;;5.50;95.90;;;;;;5055735;28;20029;-75
2021/11/06 07:24:50;;;;;;;28.92;12.95;;;5.60;95.90;;;;;;5037719;28;20033;-75
2021/11/06 07:27:16;;;;;;;19.65;11.15;;;5.70;96.10;;;;;;5054519;28;20363;-76
2021/11/06 07:29:42;;;;;;;22.30;11.95;;;5.70;95.70;;;;;;5055626;28;20115;-76
2021/11/06 07:32:08;;;;;;;21.08;11.32;;;5.80;95.70;;;;;;5054016;28;20405;-76
2021/11/06 07:34:33;;;;;;;23.88;12.32;;;5.90;95.60;;;;;;5052933;28;20029;-75
2021/11/06 07:36:59;;;;;;;26.27;11.25;;;5.90;95.60;;;;;;5050205;28;20032;-75
2021/11/06 07:39:26;;;;;;;25.70;12.70;;;6.00;95.60;;;;;;5051248;28;20669;-75
2021/11/06 07:41:52;;;;;;;23.55;10.85;;;6.10;95.60;;;;;;5064338;28;20033;-75
2021/11/06 07:44:18;;;;;;;23.60;11.20;;;6.10;95.60;;;;;;5051301;28;20056;-75
2021/11/06 07:46:44;;;;;;;18.25;10.77;;;6.10;95.50;;;;;;5051439;28;20055;-75
2021/11/06 07:49:09;;;;;;;24.80;10.38;;;6.20;95.60;;;;;;5016991;28;20576;-75
2021/11/06 07:51:35;;;;;;;22.70;11.38;;;6.20;95.50;;;;;;5052546;28;20067;-75
2021/11/06 07:54:00;;;;;;;17.42;10.10;;;6.30;95.50;;;;;;5052916;28;20037;-75
2021/11/06 07:56:26;;;;;;;18.92;10.40;;;6.30;95.40;;;;;;5052722;28;20707;-76
2021/11/06 07:58:51;;;;;;;19.42;9.55;;;6.40;95.50;;;;;;5054447;28;20381;-79
2021/11/06 08:01:18;;;;;;;18.52;10.00;;;6.50;95.40;;;;;;5053518;28;20485;-80
2021/11/06 08:03:43;;;;;;;19.10;9.60;;;6.50;95.40;;;;;;5054658;28;20405;-79
2021/11/06 08:06:09;;;;;;;22.45;9.77;;;6.60;95.30;;;;;;5052950;28;20051;-79
2021/11/06 08:08:35;;;;;;;27.02;11.10;;;6.70;95.30;;;;;;5054253;28;20044;-79
2021/11/06 08:11:01;;;;;;;17.50;9.32;;;6.70;95.20;;;;;;5036180;28;20765;-79
2021/11/06 08:13:29;;;;;;;17.50;9.35;;;6.70;95.30;;;;;;5054339;28;20393;-79
2021/11/06 08:15:55;;;;;;;18.88;8.75;;;6.80;95.30;;;;;;5052821;28;20037;-79
2021/11/06 08:18:20;;;;;;;19.52;9.40;;;6.80;95.30;;;;;;5054412;28;20059;-79
2021/11/06 08:20:46;;;;;;;18.00;9.40;;;6.90;95.30;;;;;;5053514;28;20029;-79
2021/11/06 08:23:12;;;;;;;19.27;8.65;;;6.90;95.20;;;;;;5033116;28;20021;-79
2021/11/06 08:25:39;;;;;;;19.35;9.65;;;6.90;95.20;;;;;;5050293;28;20029;-79
2021/11/06 08:28:04;;;;;;;14.98;8.65;;;7.00;95.20;;;;;;5049707;28;20037;-79
2021/11/06 08:30:30;;;;;;;14.15;8.65;;;7.10;95.30;;;;;;5051448;28;20095;-79
2021/11/06 08:32:58;;;;;;;16.10;8.65;;;7.10;95.30;;;;;;5051811;28;20440;-79
2021/11/06 08:35:27;;;;;;;13.60;7.80;;;7.30;95.20;;;;;;5051368;28;20036;-79
2021/11/06 08:37:53;;;;;;;13.27;8.15;;;7.40;95.10;;;;;;5050315;28;20436;-79
2021/11/06 08:40:19;;;;;;;14.82;8.50;;;7.50;95.00;;;;;;5051407;28;20033;-79
2021/11/06 08:42:47;;;;;;;15.77;7.80;;;7.60;94.90;;;;;;5052343;28;20076;-79
2021/11/06 08:45:15;;;;;;;15.60;7.25;;;7.70;94.70;;;;;;5050863;28;20036;-80
2021/11/06 08:47:42;;;;;;;13.80;7.85;;;7.70;94.60;;;;;;5050878;28;20568;-80
2021/11/06 08:50:11;;;;;;;15.63;8.00;;;7.70;94.50;;;;;;5051156;28;20124;-79
2021/11/06 08:52:37;;;;;;;11.35;7.47;;;7.70;94.50;;;;;;5053499;28;20072;-79
2021/11/06 08:55:04;;;;;;;14.63;7.88;;;7.70;94.50;;;;;;5053076;28;20053;-79
2021/11/06 08:57:30;;;;;;;13.93;7.55;;;7.70;94.50;;;;;;5051792;28;20029;-80
2021/11/06 09:00:04;;;;;;;14.38;8.45;;;7.70;94.60;;;;;;5052410;28;20040;-79
2021/11/06 09:02:29;;;;;;;11.95;7.80;;;7.70;94.60;;;;;;5052303;28;20053;-79
2021/11/06 09:04:55;;;;;;;11.88;7.57;;;7.80;94.60;;;;;;5052003;28;20053;-80
2021/11/06 09:07:21;;;;;;;15.70;8.30;;;7.80;94.70;;;;;;5053435;28;20079;-80
2021/11/06 09:09:46;;;;;;;13.55;7.10;;;7.80;94.70;;;;;;5052983;28;20393;-80
2021/11/06 09:12:12;;;;;;;16.58;7.60;;;7.80;94.70;;;;;;5053116;28;20036;-79
2021/11/06 09:14:38;;;;;;;14.05;7.53;;;7.80;94.70;;;;;;5050866;28;20040;-80
2021/11/06 09:17:04;;;;;;;14.18;8.20;;;7.80;94.70;;;;;;5052821;28;20036;-79
2021/11/06 09:19:30;;;;;;;16.35;7.20;;;7.90;94.70;;;;;;5053385;28;20059;-79
2021/11/06 09:21:55;;;;;;;10.95;7.18;;;7.90;94.70;;;;;;5050764;28;20032;-79
2021/11/06 09:24:21;;;;;;;18.83;7.55;;;8.00;94.70;;;;;;5050847;28;20599;-79
2021/11/06 09:26:47;;;;;;;13.18;7.15;;;8.00;94.70;;;;;;5051527;28;20048;-80
2021/11/06 09:29:15;;;;;;;15.93;7.47;;;8.10;94.60;;;;;;5051600;28;20445;-80
2021/11/06 09:31:42;;;;;;;12.33;7.30;;;8.10;94.50;;;;;;5052842;28;20021;-80
2021/11/06 09:34:09;;;;;;;11.57;6.90;;;8.20;94.50;;;;;;5051865;28;20767;-81
2021/11/06 09:36:35;;;;;;;11.30;6.70;;;8.20;94.50;;;;;;5034748;28;20184;-82
2021/11/06 09:39:05;;;;;;;13.98;6.82;;;8.30;94.30;;;;;;5052991;28;20810;-81
2021/11/06 09:41:31;;;;;;;14.82;6.75;;;8.40;94.40;;;;;;5052373;28;20409;-82
2021/11/06 09:43:57;;;;;;;13.02;6.40;;;8.40;94.30;;;;;;5051963;28;20039;-82
2021/11/06 09:46:24;;;;;;;13.80;6.88;;;8.50;94.30;;;;;;5051244;28;20028;-83
2021/11/06 09:48:50;;;;;;;11.90;6.25;;;8.60;94.40;;;;;;5052908;28;20037;-84
2021/11/06 09:51:19;;;;;;;14.68;7.00;;;8.70;94.20;;;;;;5051623;28;20075;-81
2021/11/06 09:53:48;;;;;;;12.93;6.47;;;8.80;94.00;;;;;;5052497;28;20017;-82
2021/11/06 09:56:18;;;;;;;9.80;6.00;;;8.90;93.90;;;;;;5069524;28;20081;-82
2021/11/06 09:58:45;;;;;;;11.82;6.90;;;9.00;93.90;;;;;;5056043;28;20054;-82
2021/11/06 10:01:12;;;;;;;10.55;6.38;;;9.00;93.80;;;;;;5052155;28;20469;-81
2021/11/06 10:03:38;;;;;;;11.38;5.35;;;9.10;93.80;;;;;;5038559;28;20037;-80
2021/11/06 10:06:06;;;;;;;13.25;5.45;;;9.20;93.70;;;;;;5051638;28;20529;-80
2021/11/06 10:08:35;;;;;;;9.27;5.03;;;9.20;93.60;;;;;;5047954;28;20025;-81
2021/11/06 10:11:05;;;;;;;13.23;6.00;;;9.30;93.50;;;;;;5050195;28;20037;-81
2021/11/06 10:13:31;;;;;;;9.40;5.65;;;9.30;93.60;;;;;;5051549;28;20771;-79
2021/11/06 10:15:59;;;;;;;6.95;5.22;;;9.40;93.60;;;;;;5050288;28;20029;-80
2021/11/06 10:18:27;;;;;;;10.20;5.00;;;9.40;93.60;;;;;;5050138;28;20025;-79
2021/11/06 10:21:04;;;;;;;6.88;4.80;;;9.50;93.50;;;;;;5052159;28;20078;-79
2021/11/06 10:23:37;;;;;;;9.15;5.07;;;9.50;93.40;;;;;;5056540;28;20067;-80
2021/11/06 10:26:18;;;;;;;12.48;5.32;;;9.60;93.50;;;;;;5054727;28;20048;-80
2021/11/06 10:28:47;;;;;;;11.27;5.43;;;9.70;93.40;;;;;;5054115;28;20045;-80
2021/11/06 10:31:13;;;;;;;8.57;4.90;;;9.80;93.40;;;;;;5055134;28;20040;-80
2021/11/06 10:33:44;;;;;;;9.07;4.75;;;9.90;93.40;;;;;;5056643;28;20029;-80
2021/11/06 10:36:24;;;;;;;10.15;4.70;;;9.90;93.30;;;;;;5059303;28;20047;-79
2021/11/06 10:39:05;;;;;;;9.32;4.45;;;10.00;93.20;;;;;;5054344;28;20028;-79
2021/11/06 10:41:32;;;;;;;7.95;4.63;;;10.00;93.10;;;;;;5055758;28;20397;-79
2021/11/06 10:43:58;;;;;;;8.30;4.85;;;9.90;93.00;;;;;;5055888;28;20021;-80
2021/11/06 10:46:26;;;;;;;7.82;4.82;;;9.90;92.80;;;;;;5055431;28;20485;-80
2021/11/06 10:48:52;;;;;;;10.27;4.97;;;9.90;92.80;;;;;;5054578;28;20033;-79
2021/11/06 10:51:17;;;;;;;8.13;4.72;;;9.90;92.80;;;;;;5054190;28;20405;-79
2021/11/06 10:53:45;;;;;;;7.00;4.47;;;9.80;92.70;;;;;;5054625;28;20033;-80
2021/11/06 10:56:13;;;;;;;11.52;4.78;;;9.80;92.60;;;;;;5052161;28;20041;-80
2021/11/06 10:58:42;;;;;;;9.02;4.03;;;9.80;92.80;;;;;;5053035;28;20037;-80
2021/11/06 11:01:13;;;;;;;9.80;4.53;;;9.80;92.80;;;;;;5051786;28;20109;-80
2021/11/06 11:04:26;;;;;;;6.05;3.63;;;9.90;92.90;;;;;;5048496;28;20115;-80
2021/11/06 11:06:54;;;;;;;4.78;3.78;;;9.90;92.70;;;;;;5038239;28;20033;-80
2021/11/06 11:09:22;;;;;;;4.97;3.55;;;9.90;92.60;;;;;;5054947;28;20115;-80
2021/11/06 11:11:49;;;;;;;7.55;4.03;;;9.90;92.60;;;;;;5055045;28;20505;-81
2021/11/06 11:14:30;;;;;;;6.40;3.92;;;9.90;92.40;;;;;;5054126;28;20418;-82
2021/11/06 11:16:57;;;;;;;8.85;4.38;;;9.90;92.50;;;;;;5052095;28;20051;-82
2021/11/06 11:19:39;;;;;;;9.63;3.90;;;10.00;92.50;;;;;;5054168;28;20155;-82
2021/11/06 11:22:26;;;;;;;5.32;3.67;;;10.00;92.60;;;;;;5051771;28;20114;-82
2021/11/06 11:24:52;;;;;;;4.85;3.67;;;10.10;92.80;;;;;;5053841;28;20040;-82
2021/11/06 11:27:18;;;;;;;7.88;3.97;;;10.30;92.30;;;;;;5055482;28;20032;-82
2021/11/06 11:29:44;;;;;;;5.85;3.92;;;10.40;92.30;;;;;;5053595;28;20099;-82
2021/11/06 11:32:12;;;;;;;10.48;4.20;;;10.50;92.20;;;;;;5055172;28;20029;-81
2021/11/06 11:34:40;;;;;;;8.50;3.78;;;10.50;92.10;;;;;;5036516;28;20033;-82
2021/11/06 11:37:07;;;;;;;6.32;3.75;;;10.60;92.00;;;;;;5034651;28;20033;-82
2021/11/06 11:39:33;;;;;;;6.40;4.00;;;10.70;91.90;;;;;;5035161;28;20059;-82
2021/11/06 11:42:07;;;;;;;4.65;3.75;;;10.80;91.90;;;;;;5054990;28;20112;-82
2021/11/06 11:44:48;;;;;;;8.98;3.78;;;10.80;91.80;;;;;;5054815;28;20028;-80
2021/11/06 11:47:27;;;;;;;7.32;3.58;;;10.90;91.60;;;;;;5047953;28;20504;-80
2021/11/06 11:49:54;;;;;;;5.10;3.60;;;11.00;91.60;;;;;;5054367;28;20025;-81
2021/11/06 11:52:35;;;;;;;7.43;3.60;;;11.10;91.50;;;;;;5054586;28;20044;-79
2021/11/06 11:55:09;;;;;;;7.28;3.63;;;11.10;91.40;;;;;;5054857;28;20096;-80
2021/11/06 11:57:36;;;;;;;9.93;3.63;;;11.10;91.40;;;;;;5055173;28;20032;-79
2021/11/06 12:00:17;;;;;;;8.65;3.50;;;11.20;91.30;;;;;;5054129;28;20021;-79
2021/11/06 12:03:13;;;;;;;4.13;3.20;;;11.20;91.30;;;;;;5052947;28;20025;-79
2021/11/06 12:05:47;;;;;;;6.35;3.60;;;11.20;91.20;;;;;;5042787;28;20501;-79
2021/11/06 12:08:14;;;;;;;6.75;3.22;;;11.10;91.20;;;;;;5051210;28;20029;-80
2021/11/06 12:10:46;;;;;;;7.35;3.60;;;11.20;91.30;;;;;;5052062;28;20025;-80
2021/11/06 12:13:35;;;;;;;5.70;3.42;;;11.20;91.30;;;;;;5052656;28;20032;-79
2021/11/06 12:16:05;;;;;;;8.35;3.85;;;11.20;91.30;;;;;;5050895;28;20013;-80
2021/11/06 12:18:33;;;;;;;9.02;3.80;;;11.20;91.30;;;;;;5052280;28;20052;-79
2021/11/06 12:21:15;;;;;;;6.40;3.20;;;11.20;91.40;;;;;;5052687;28;20051;-79
2021/11/06 12:23:42;;;;;;;7.28;3.70;;;11.20;91.40;;;;;;5052725;28;20025;-79
2021/11/06 12:26:30;;;;;;;10.15;3.55;;;11.20;91.20;;;;;;5053065;28;20032;-79
2021/11/06 12:29:05;;;;;;;9.45;3.85;;;11.20;91.40;;;;;;5054667;28;20068;-79
2021/11/06 12:31:33;;;;;;;7.53;3.90;;;11.20;91.50;;;;;;5054236;28;20025;-79
2021/11/06 12:34:01;;;;;;;7.13;3.70;;;11.20;91.50;;;;;;5052987;28;20029;-79
2021/11/06 12:36:29;;;;;;;6.35;3.53;;;11.10;91.30;;;;;;5053808;28;20021;-79
2021/11/06 12:39:03;;;;;;;6.07;3.08;;;11.10;91.10;;;;;;5053521;28;20021;-79
2021/11/06 12:41:29;;;;;;;6.10;3.53;;;11.10;91.30;;;;;;5053877;28;20533;-79